sensor_id;sensor_type;location;lat;lon;timestamp;pressure;altitude;pressure_sealevel;temperature;humidity
66703;BME280;60933;46.398;-63.798;2024-03-22T00:02:09;99750.41;;;-1.38;100.00
66703;BME280;60933;46.398;-63.798;2024-03-22T00:04:37;99749.63;;;-1.31;100.00
66703;BME280;60933;46.398;-63.798;2024-03-22T00:07:03;99752.84;;;-1.48;100.00
66703;BME280;60933;46.398;-63.798;2024-03-22T00:09:30;99759.41;;;-1.68;100.00
66703;BME280;60933;46.398;-63.798;2024-03-22T00:11:57;99766.00;;;-1.84;100.00
66703;BME280;60933;46.398;-63.798;2024-03-22T00:14:24;99762.50;;;-1.97;100.00
66703;BME280;60933;46.398;-63.798;2024-03-22T00:16:51;99777.66;;;-2.00;100.00
66703;BME280;60933;46.398;-63.798;2024-03-22T00:19:17;99765.84;;;-2.01;100.00
66703;BME280;60933;46.398;-63.798;2024-03-22T00:21:44;99771.72;;;-2.02;100.00
66703;BME280;60933;46.398;-63.798;2024-03-22T00:24:10;99779.25;;;-2.07;99.39
66703;BME280;60933;46.398;-63.798;2024-03-22T00:26:37;99776.66;;;-2.13;99.21
66703;BME280;60933;46.398;-63.798;2024-03-22T00:29:04;99747.97;;;-2.17;100.00
66703;BME280;60933;46.398;-63.798;2024-03-22T00:31:31;99807.06;;;-2.09;100.00
66703;BME280;60933;46.398;-63.798;2024-03-22T00:33:58;99788.59;;;-2.01;100.00
66703;BME280;60933;46.398;-63.798;2024-03-22T00:36:24;99799.38;;;-2.18;100.00
66703;BME280;60933;46.398;-63.798;2024-03-22T00:38:52;99821.09;;;-2.32;100.00
66703;BME280;60933;46.398;-63.798;2024-03-22T00:41:18;99815.97;;;-2.39;100.00
66703;BME280;60933;46.398;-63.798;2024-03-22T00:43:45;99825.06;;;-2.53;100.00
66703;BME280;60933;46.398;-63.798;2024-03-22T00:46:11;99830.13;;;-2.51;100.00
66703;BME280;60933;46.398;-63.798;2024-03-22T00:48:38;99815.66;;;-2.62;100.00
66703;BME280;60933;46.398;-63.798;2024-03-22T00:51:05;99824.03;;;-2.64;100.00
66703;BME280;60933;46.398;-63.798;2024-03-22T00:53:32;99844.25;;;-2.64;100.00
66703;BME280;60933;46.398;-63.798;2024-03-22T00:55:58;99829.91;;;-2.68;100.00
66703;BME280;60933;46.398;-63.798;2024-03-22T00:58:28;99831.38;;;-2.81;100.00
66703;BME280;60933;46.398;-63.798;2024-03-22T01:00:55;99833.91;;;-2.80;100.00
66703;BME280;60933;46.398;-63.798;2024-03-22T01:03:22;99818.75;;;-2.81;100.00
66703;BME280;60933;46.398;-63.798;2024-03-22T01:05:49;99843.13;;;-2.83;100.00
66703;BME280;60933;46.398;-63.798;2024-03-22T01:08:16;99832.06;;;-2.90;100.00
66703;BME280;60933;46.398;-63.798;2024-03-22T01:10:43;99851.50;;;-2.86;100.00
66703;BME280;60933;46.398;-63.798;2024-03-22T01:13:09;99833.69;;;-2.97;100.00
66703;BME280;60933;46.398;-63.798;2024-03-22T01:15:36;99832.94;;;-2.90;100.00
66703;BME280;60933;46.398;-63.798;2024-03-22T01:18:03;99843.06;;;-2.88;100.00
66703;BME280;60933;46.398;-63.798;2024-03-22T01:20:30;99858.94;;;-2.95;100.00
66703;BME280;60933;46.398;-63.798;2024-03-22T01:22:56;99850.63;;;-2.90;100.00
66703;BME280;60933;46.398;-63.798;2024-03-22T01:25:23;99856.34;;;-2.98;100.00
66703;BME280;60933;46.398;-63.798;2024-03-22T01:27:49;99848.66;;;-3.06;100.00
66703;BME280;60933;46.398;-63.798;2024-03-22T01:30:16;99801.53;;;-3.06;100.00
66703;BME280;60933;46.398;-63.798;2024-03-22T01:32:42;99856.31;;;-3.03;100.00
66703;BME280;60933;46.398;-63.798;2024-03-22T01:35:09;99851.97;;;-3.10;100.00
66703;BME280;60933;46.398;-63.798;2024-03-22T01:37:36;99870.41;;;-3.16;100.00
66703;BME280;60933;46.398;-63.798;2024-03-22T01:40:03;99874.69;;;-3.10;100.00
66703;BME280;60933;46.398;-63.798;2024-03-22T01:42:31;99870.34;;;-3.19;100.00
66703;BME280;60933;46.398;-63.798;2024-03-22T01:44:57;99867.72;;;-3.25;100.00
66703;BME280;60933;46.398;-63.798;2024-03-22T01:47:24;99858.44;;;-3.26;100.00
66703;BME280;60933;46.398;-63.798;2024-03-22T01:49:54;99858.44;;;-3.26;100.00
66703;BME280;60933;46.398;-63.798;2024-03-22T01:52:21;99903.78;;;-3.31;100.00
66703;BME280;60933;46.398;-63.798;2024-03-22T01:54:49;99923.94;;;-3.34;100.00
66703;BME280;60933;46.398;-63.798;2024-03-22T01:57:16;99882.41;;;-3.48;100.00
66703;BME280;60933;46.398;-63.798;2024-03-22T01:59:43;99871.44;;;-3.52;100.00
66703;BME280;60933;46.398;-63.798;2024-03-22T02:02:10;99894.97;;;-3.53;100.00
66703;BME280;60933;46.398;-63.798;2024-03-22T02:04:37;99917.69;;;-3.53;100.00
66703;BME280;60933;46.398;-63.798;2024-03-22T02:07:04;99879.84;;;-3.53;100.00
66703;BME280;60933;46.398;-63.798;2024-03-22T02:09:31;99900.78;;;-3.56;100.00
66703;BME280;60933;46.398;-63.798;2024-03-22T02:11:58;99898.25;;;-3.57;100.00
66703;BME280;60933;46.398;-63.798;2024-03-22T02:14:24;99952.00;;;-3.61;100.00
66703;BME280;60933;46.398;-63.798;2024-03-22T02:16:51;99891.38;;;-3.64;100.00
66703;BME280;60933;46.398;-63.798;2024-03-22T02:19:18;99905.63;;;-3.68;100.00
66703;BME280;60933;46.398;-63.798;2024-03-22T02:21:45;99904.81;;;-3.66;100.00
66703;BME280;60933;46.398;-63.798;2024-03-22T02:24:11;99906.53;;;-3.64;100.00
66703;BME280;60933;46.398;-63.798;2024-03-22T02:26:38;99921.63;;;-3.66;100.00
66703;BME280;60933;46.398;-63.798;2024-03-22T02:29:05;99894.63;;;-3.70;100.00
66703;BME280;60933;46.398;-63.798;2024-03-22T02:31:31;99928.25;;;-3.71;100.00
66703;BME280;60933;46.398;-63.798;2024-03-22T02:33:58;99917.38;;;-3.69;100.00
66703;BME280;60933;46.398;-63.798;2024-03-22T02:36:28;99922.25;;;-3.76;100.00
66703;BME280;60933;46.398;-63.798;2024-03-22T02:38:55;99918.91;;;-3.77;100.00
66703;BME280;60933;46.398;-63.798;2024-03-22T02:41:22;99902.88;;;-3.79;100.00
66703;BME280;60933;46.398;-63.798;2024-03-22T02:43:48;99922.25;;;-3.78;100.00
66703;BME280;60933;46.398;-63.798;2024-03-22T02:46:15;99942.31;;;-3.84;100.00
66703;BME280;60933;46.398;-63.798;2024-03-22T02:48:41;99915.31;;;-3.88;99.01
66703;BME280;60933;46.398;-63.798;2024-03-22T02:51:08;99937.97;;;-3.90;96.42
66703;BME280;60933;46.398;-63.798;2024-03-22T02:53:34;99927.00;;;-3.90;99.20
66703;BME280;60933;46.398;-63.798;2024-03-22T02:56:01;99942.19;;;-3.89;99.64
66703;BME280;60933;46.398;-63.798;2024-03-22T02:58:28;99961.47;;;-3.92;99.66
66703;BME280;60933;46.398;-63.798;2024-03-22T03:00:54;99932.81;;;-3.94;99.42
66703;BME280;60933;46.398;-63.798;2024-03-22T03:03:21;99934.53;;;-3.93;98.45
66703;BME280;60933;46.398;-63.798;2024-03-22T03:05:47;99955.53;;;-3.94;97.48
66703;BME280;60933;46.398;-63.798;2024-03-22T03:08:14;99945.47;;;-3.93;99.54
66703;BME280;60933;46.398;-63.798;2024-03-22T03:10:41;99942.84;;;-3.98;96.94
66703;BME280;60933;46.398;-63.798;2024-03-22T03:13:07;99973.94;;;-3.99;96.74
66703;BME280;60933;46.398;-63.798;2024-03-22T03:15:34;99948.56;;;-4.05;95.25
66703;BME280;60933;46.398;-63.798;2024-03-22T03:18:00;99960.31;;;-4.07;94.65
66703;BME280;60933;46.398;-63.798;2024-03-22T03:20:27;99953.59;;;-4.06;97.01
66703;BME280;60933;46.398;-63.798;2024-03-22T03:22:53;100000.59;;;-4.08;97.40
66703;BME280;60933;46.398;-63.798;2024-03-22T03:25:21;99986.25;;;-4.11;98.38
66703;BME280;60933;46.398;-63.798;2024-03-22T03:27:48;99961.00;;;-4.14;96.04
66703;BME280;60933;46.398;-63.798;2024-03-22T03:30:14;99980.28;;;-4.15;98.18
66703;BME280;60933;46.398;-63.798;2024-03-22T03:32:41;99972.69;;;-4.16;97.53
66703;BME280;60933;46.398;-63.798;2024-03-22T03:35:07;99988.66;;;-4.16;98.90
66703;BME280;60933;46.398;-63.798;2024-03-22T03:37:34;99976.13;;;-4.14;97.38
66703;BME280;60933;46.398;-63.798;2024-03-22T03:40:01;99964.31;;;-4.15;95.27
66703;BME280;60933;46.398;-63.798;2024-03-22T03:42:27;99979.47;;;-4.14;93.16
66703;BME280;60933;46.398;-63.798;2024-03-22T03:44:54;100000.44;;;-4.16;94.45
66703;BME280;60933;46.398;-63.798;2024-03-22T03:47:20;100014.69;;;-4.17;90.06
66703;BME280;60933;46.398;-63.798;2024-03-22T03:49:47;99981.91;;;-4.17;91.76
66703;BME280;60933;46.398;-63.798;2024-03-22T03:52:14;99989.44;;;-4.18;91.87
66703;BME280;60933;46.398;-63.798;2024-03-22T03:54:41;100002.06;;;-4.18;92.59
66703;BME280;60933;46.398;-63.798;2024-03-22T03:57:07;99967.53;;;-4.22;87.09
66703;BME280;60933;46.398;-63.798;2024-03-22T03:59:34;100012.03;;;-4.23;87.78
66703;BME280;60933;46.398;-63.798;2024-03-22T04:02:00;100008.59;;;-4.25;91.68
66703;BME280;60933;46.398;-63.798;2024-03-22T04:04:27;100018.66;;;-4.26;91.43
66703;BME280;60933;46.398;-63.798;2024-03-22T04:06:54;100004.25;;;-4.32;88.73
66703;BME280;60933;46.398;-63.798;2024-03-22T04:09:20;99977.25;;;-4.38;92.13
66703;BME280;60933;46.398;-63.798;2024-03-22T04:11:47;100011.78;;;-4.32;92.36
66703;BME280;60933;46.398;-63.798;2024-03-22T04:14:14;100000.97;;;-4.30;92.79
66703;BME280;60933;46.398;-63.798;2024-03-22T04:16:40;100006.06;;;-4.26;95.74
66703;BME280;60933;46.398;-63.798;2024-03-22T04:19:07;100001.09;;;-4.23;94.82
66703;BME280;60933;46.398;-63.798;2024-03-22T04:21:33;100019.59;;;-4.21;95.19
66703;BME280;60933;46.398;-63.798;2024-03-22T04:24:00;99994.28;;;-4.27;92.49
66703;BME280;60933;46.398;-63.798;2024-03-22T04:26:27;100050.59;;;-4.27;88.69
66703;BME280;60933;46.398;-63.798;2024-03-22T04:28:53;100017.72;;;-4.32;89.81
66703;BME280;60933;46.398;-63.798;2024-03-22T04:31:21;100013.59;;;-4.28;93.30
66703;BME280;60933;46.398;-63.798;2024-03-22T04:33:48;100027.84;;;-4.29;96.46
66703;BME280;60933;46.398;-63.798;2024-03-22T04:36:15;100070.63;;;-4.32;93.35
66703;BME280;60933;46.398;-63.798;2024-03-22T04:38:42;100041.19;;;-4.33;93.39
66703;BME280;60933;46.398;-63.798;2024-03-22T04:41:12;100041.28;;;-4.30;94.81
66703;BME280;60933;46.398;-63.798;2024-03-22T04:43:38;100008.66;;;-4.23;95.74
66703;BME280;60933;46.398;-63.798;2024-03-22T04:46:05;100021.19;;;-4.26;95.08
66703;BME280;60933;46.398;-63.798;2024-03-22T04:48:31;100022.78;;;-4.30;93.57
66703;BME280;60933;46.398;-63.798;2024-03-22T04:50:58;100047.03;;;-4.34;96.33
66703;BME280;60933;46.398;-63.798;2024-03-22T04:53:24;100066.31;;;-4.36;99.32
66703;BME280;60933;46.398;-63.798;2024-03-22T04:55:52;100049.41;;;-4.40;97.99
66703;BME280;60933;46.398;-63.798;2024-03-22T04:58:22;100029.97;;;-4.46;96.34
66703;BME280;60933;46.398;-63.798;2024-03-22T05:00:57;100056.78;;;-4.48;99.07
66703;BME280;60933;46.398;-63.798;2024-03-22T05:03:23;100056.78;;;-4.48;96.94
66703;BME280;60933;46.398;-63.798;2024-03-22T05:05:50;100054.97;;;-4.53;98.19
66703;BME280;60933;46.398;-63.798;2024-03-22T05:08:17;100048.34;;;-4.50;100.00
66703;BME280;60933;46.398;-63.798;2024-03-22T05:10:44;100053.41;;;-4.48;100.00
66703;BME280;60933;46.398;-63.798;2024-03-22T05:13:10;100064.16;;;-4.55;100.00
66703;BME280;60933;46.398;-63.798;2024-03-22T05:15:37;100062.59;;;-4.50;100.00
66703;BME280;60933;46.398;-63.798;2024-03-22T05:18:04;100057.66;;;-4.46;99.54
66703;BME280;60933;46.398;-63.798;2024-03-22T05:20:30;100066.75;;;-4.52;96.37
66703;BME280;60933;46.398;-63.798;2024-03-22T05:22:57;100081.03;;;-4.51;100.00
66703;BME280;60933;46.398;-63.798;2024-03-22T05:25:23;100099.53;;;-4.51;100.00
66703;BME280;60933;46.398;-63.798;2024-03-22T05:27:50;100070.03;;;-4.55;100.00
66703;BME280;60933;46.398;-63.798;2024-03-22T05:30:16;100055.63;;;-4.61;100.00
66703;BME280;60933;46.398;-63.798;2024-03-22T05:32:44;100086.00;;;-4.54;100.00
66703;BME280;60933;46.398;-63.798;2024-03-22T05:35:10;100071.69;;;-4.57;100.00
66703;BME280;60933;46.398;-63.798;2024-03-22T05:37:37;100096.00;;;-4.57;100.00
66703;BME280;60933;46.398;-63.798;2024-03-22T05:40:03;100083.44;;;-4.56;100.00
66703;BME280;60933;46.398;-63.798;2024-03-22T05:42:31;100084.22;;;-4.58;98.92
66703;BME280;60933;46.398;-63.798;2024-03-22T05:44:57;100058.97;;;-4.62;100.00
66703;BME280;60933;46.398;-63.798;2024-03-22T05:47:24;100080.81;;;-4.61;100.00
66703;BME280;60933;46.398;-63.798;2024-03-22T05:49:50;100176.53;;;-4.61;99.62
66703;BME280;60933;46.398;-63.798;2024-03-22T05:52:18;100104.94;;;-4.69;98.36
66703;BME280;60933;46.398;-63.798;2024-03-22T05:54:45;100103.16;;;-4.73;100.00
66703;BME280;60933;46.398;-63.798;2024-03-22T05:57:12;100140.75;;;-4.79;100.00
66703;BME280;60933;46.398;-63.798;2024-03-22T05:59:38;100126.41;;;-4.82;100.00
66703;BME280;60933;46.398;-63.798;2024-03-22T06:02:05;100150.81;;;-4.79;100.00
66703;BME280;60933;46.398;-63.798;2024-03-22T06:04:32;100106.25;;;-4.83;100.00
66703;BME280;60933;46.398;-63.798;2024-03-22T06:06:59;100142.94;;;-4.91;100.00
66703;BME280;60933;46.398;-63.798;2024-03-22T06:09:27;100132.06;;;-4.90;100.00
66703;BME280;60933;46.398;-63.798;2024-03-22T06:12:22;100103.38;;;-4.96;100.00
66703;BME280;60933;46.398;-63.798;2024-03-22T06:14:49;100126.00;;;-4.97;100.00
66703;BME280;60933;46.398;-63.798;2024-03-22T06:17:16;100104.19;;;-4.97;100.00
66703;BME280;60933;46.398;-63.798;2024-03-22T06:19:43;100150.38;;;-4.95;100.00
66703;BME280;60933;46.398;-63.798;2024-03-22T06:22:09;100141.94;;;-4.97;100.00
66703;BME280;60933;46.398;-63.798;2024-03-22T06:24:36;100166.94;;;-5.03;100.00
66703;BME280;60933;46.398;-63.798;2024-03-22T06:27:03;100142.69;;;-4.99;100.00
66703;BME280;60933;46.398;-63.798;2024-03-22T06:29:30;100145.25;;;-4.98;98.90
66703;BME280;60933;46.398;-63.798;2024-03-22T06:31:56;100147.78;;;-4.98;94.67
66703;BME280;60933;46.398;-63.798;2024-03-22T06:34:23;100123.47;;;-4.97;95.04
66703;BME280;60933;46.398;-63.798;2024-03-22T06:36:49;100131.06;;;-4.96;95.53
66703;BME280;60933;46.398;-63.798;2024-03-22T06:39:18;100138.72;;;-4.93;94.84
66703;BME280;60933;46.398;-63.798;2024-03-22T06:41:45;100141.91;;;-4.98;93.03
66703;BME280;60933;46.398;-63.798;2024-03-22T06:44:12;100192.22;;;-5.00;91.07
66703;BME280;60933;46.398;-63.798;2024-03-22T06:46:40;100140.19;;;-4.99;88.86
66703;BME280;60933;46.398;-63.798;2024-03-22T06:49:06;100131.78;;;-5.00;87.07
66703;BME280;60933;46.398;-63.798;2024-03-22T06:51:33;100150.22;;;-5.01;86.52
66703;BME280;60933;46.398;-63.798;2024-03-22T06:53:59;100159.50;;;-5.00;87.72
66703;BME280;60933;46.398;-63.798;2024-03-22T06:56:26;100185.38;;;-5.04;86.04
66703;BME280;60933;46.398;-63.798;2024-03-22T06:58:52;100171.97;;;-5.03;87.99
66703;BME280;60933;46.398;-63.798;2024-03-22T07:01:19;100150.88;;;-5.06;86.29
66703;BME280;60933;46.398;-63.798;2024-03-22T07:03:47;100163.50;;;-5.05;89.67
66703;BME280;60933;46.398;-63.798;2024-03-22T07:06:16;100204.63;;;-5.06;91.64
66703;BME280;60933;46.398;-63.798;2024-03-22T07:08:43;100155.00;;;-5.09;92.56
66703;BME280;60933;46.398;-63.798;2024-03-22T07:11:10;100153.28;;;-5.11;91.00
66703;BME280;60933;46.398;-63.798;2024-03-22T07:13:37;100154.19;;;-5.09;96.62
66703;BME280;60933;46.398;-63.798;2024-03-22T07:16:03;100142.50;;;-5.07;91.17
66703;BME280;60933;46.398;-63.798;2024-03-22T07:18:30;100178.53;;;-5.08;89.14
66703;BME280;60933;46.398;-63.798;2024-03-22T07:20:56;100173.34;;;-5.14;88.83
66703;BME280;60933;46.398;-63.798;2024-03-22T07:23:27;100175.00;;;-5.13;90.74
66703;BME280;60933;46.398;-63.798;2024-03-22T07:25:54;100182.50;;;-5.16;91.38
66703;BME280;60933;46.398;-63.798;2024-03-22T07:28:20;100205.13;;;-5.16;89.51
66703;BME280;60933;46.398;-63.798;2024-03-22T07:30:47;100230.19;;;-5.19;88.54
66703;BME280;60933;46.398;-63.798;2024-03-22T07:33:13;100191.47;;;-5.25;87.09
66703;BME280;60933;46.398;-63.798;2024-03-22T07:35:42;100195.50;;;-5.30;87.51
66703;BME280;60933;46.398;-63.798;2024-03-22T07:38:10;100213.94;;;-5.31;87.93
66703;BME280;60933;46.398;-63.798;2024-03-22T07:40:36;100245.69;;;-5.34;90.08
66703;BME280;60933;46.398;-63.798;2024-03-22T07:43:03;100235.50;;;-5.37;89.81
66703;BME280;60933;46.398;-63.798;2024-03-22T07:45:34;100202.66;;;-5.42;89.82
66703;BME280;60933;46.398;-63.798;2024-03-22T07:48:01;100219.44;;;-5.43;89.61
66703;BME280;60933;46.398;-63.798;2024-03-22T07:50:28;100232.66;;;-5.48;87.59
66703;BME280;60933;46.398;-63.798;2024-03-22T07:52:54;100224.16;;;-5.52;88.13
66703;BME280;60933;46.398;-63.798;2024-03-22T07:55:22;100221.34;;;-5.61;88.45
66703;BME280;60933;46.398;-63.798;2024-03-22T07:57:49;100242.56;;;-5.53;90.51
66703;BME280;60933;46.398;-63.798;2024-03-22T08:00:15;100220.81;;;-5.52;92.20
66703;BME280;60933;46.398;-63.798;2024-03-22T08:02:42;100253.53;;;-5.51;90.18
66703;BME280;60933;46.398;-63.798;2024-03-22T08:05:09;100259.34;;;-5.53;87.76
66703;BME280;60933;46.398;-63.798;2024-03-22T08:07:35;100232.47;;;-5.54;86.13
66703;BME280;60933;46.398;-63.798;2024-03-22T08:10:02;100230.59;;;-5.60;86.62
66703;BME280;60933;46.398;-63.798;2024-03-22T08:12:30;100254.00;;;-5.63;86.45
66703;BME280;60933;46.398;-63.798;2024-03-22T08:14:56;100248.91;;;-5.64;86.78
66703;BME280;60933;46.398;-63.798;2024-03-22T08:17:23;100263.13;;;-5.65;85.58
66703;BME280;60933;46.398;-63.798;2024-03-22T08:19:50;100258.38;;;-5.57;89.78
66703;BME280;60933;46.398;-63.798;2024-03-22T08:22:16;100260.91;;;-5.57;88.15
66703;BME280;60933;46.398;-63.798;2024-03-22T08:24:43;100271.59;;;-5.63;86.22
66703;BME280;60933;46.398;-63.798;2024-03-22T08:27:09;100271.00;;;-5.56;89.82
66703;BME280;60933;46.398;-63.798;2024-03-22T08:29:36;100309.53;;;-5.57;90.42
66703;BME280;60933;46.398;-63.798;2024-03-22T08:32:03;100305.22;;;-5.61;88.96
66703;BME280;60933;46.398;-63.798;2024-03-22T08:34:33;100347.84;;;-5.64;86.08
66703;BME280;60933;46.398;-63.798;2024-03-22T08:37:00;100295.75;;;-5.68;87.76
66703;BME280;60933;46.398;-63.798;2024-03-22T08:39:27;100289.63;;;-5.75;84.39
66703;BME280;60933;46.398;-63.798;2024-03-22T08:41:53;100314.75;;;-5.76;85.83
66703;BME280;60933;46.398;-63.798;2024-03-22T08:44:21;100308.84;;;-5.77;89.11
66703;BME280;60933;46.398;-63.798;2024-03-22T08:46:47;100314.91;;;-5.72;93.52
66703;BME280;60933;46.398;-63.798;2024-03-22T08:49:15;100306.31;;;-5.77;93.93
66703;BME280;60933;46.398;-63.798;2024-03-22T08:51:45;100328.09;;;-5.77;96.31
66703;BME280;60933;46.398;-63.798;2024-03-22T08:54:12;100332.06;;;-5.84;98.61
66703;BME280;60933;46.398;-63.798;2024-03-22T08:56:39;100324.94;;;-5.96;100.00
66703;BME280;60933;46.398;-63.798;2024-03-22T08:59:05;100314.50;;;-6.08;100.00
66703;BME280;60933;46.398;-63.798;2024-03-22T09:01:32;100353.69;;;-6.13;100.00
66703;BME280;60933;46.398;-63.798;2024-03-22T09:03:58;100389.34;;;-6.22;100.00
66703;BME280;60933;46.398;-63.798;2024-03-22T09:06:25;100371.31;;;-6.34;100.00
66703;BME280;60933;46.398;-63.798;2024-03-22T09:08:52;100389.06;;;-6.53;100.00
66703;BME280;60933;46.398;-63.798;2024-03-22T09:11:21;100364.44;;;-6.61;100.00
66703;BME280;60933;46.398;-63.798;2024-03-22T09:13:47;100365.00;;;-6.69;100.00
66703;BME280;60933;46.398;-63.798;2024-03-22T09:16:15;100420.66;;;-6.79;100.00
66703;BME280;60933;46.398;-63.798;2024-03-22T09:18:42;100431.38;;;-6.83;100.00
66703;BME280;60933;46.398;-63.798;2024-03-22T09:21:08;100410.19;;;-6.90;100.00
66703;BME280;60933;46.398;-63.798;2024-03-22T09:23:36;100411.66;;;-6.95;100.00
66703;BME280;60933;46.398;-63.798;2024-03-22T09:26:03;100391.47;;;-6.98;100.00
66703;BME280;60933;46.398;-63.798;2024-03-22T09:28:30;100413.22;;;-6.97;100.00
66703;BME280;60933;46.398;-63.798;2024-03-22T09:30:57;100454.25;;;-6.96;100.00
66703;BME280;60933;46.398;-63.798;2024-03-22T09:33:24;100414.94;;;-6.96;100.00
66703;BME280;60933;46.398;-63.798;2024-03-22T09:35:50;100438.16;;;-7.02;100.00
66703;BME280;60933;46.398;-63.798;2024-03-22T09:38:17;100451.41;;;-7.04;100.00
66703;BME280;60933;46.398;-63.798;2024-03-22T09:40:44;100456.31;;;-7.07;100.00
66703;BME280;60933;46.398;-63.798;2024-03-22T09:43:12;100436.91;;;-7.11;100.00
66703;BME280;60933;46.398;-63.798;2024-03-22T09:45:45;100469.50;;;-7.11;100.00
66703;BME280;60933;46.398;-63.798;2024-03-22T09:48:12;100440.88;;;-7.17;100.00
66703;BME280;60933;46.398;-63.798;2024-03-22T09:50:40;100442.53;;;-7.17;100.00
66703;BME280;60933;46.398;-63.798;2024-03-22T09:53:08;100449.72;;;-7.25;100.00
66703;BME280;60933;46.398;-63.798;2024-03-22T09:55:36;100450.59;;;-7.24;100.00
66703;BME280;60933;46.398;-63.798;2024-03-22T09:58:03;100464.56;;;-7.29;100.00
66703;BME280;60933;46.398;-63.798;2024-03-22T10:00:30;100477.06;;;-7.31;100.00
66703;BME280;60933;46.398;-63.798;2024-03-22T10:02:57;100467.94;;;-7.29;100.00
66703;BME280;60933;46.398;-63.798;2024-03-22T10:05:25;100473.75;;;-7.30;100.00
66703;BME280;60933;46.398;-63.798;2024-03-22T10:07:51;100476.91;;;-7.34;100.00
66703;BME280;60933;46.398;-63.798;2024-03-22T10:10:19;100501.34;;;-7.30;100.00
66703;BME280;60933;46.398;-63.798;2024-03-22T10:12:47;100505.22;;;-7.37;100.00
66703;BME280;60933;46.398;-63.798;2024-03-22T10:15:14;100520.00;;;-7.43;100.00
66703;BME280;60933;46.398;-63.798;2024-03-22T10:17:41;100475.59;;;-7.45;100.00
66703;BME280;60933;46.398;-63.798;2024-03-22T10:20:08;100508.31;;;-7.42;100.00
66703;BME280;60933;46.398;-63.798;2024-03-22T10:22:47;100498.38;;;-7.41;100.00
66703;BME280;60933;46.398;-63.798;2024-03-22T10:25:15;100491.06;;;-7.36;100.00
66703;BME280;60933;46.398;-63.798;2024-03-22T10:27:41;100563.97;;;-7.32;100.00
66703;BME280;60933;46.398;-63.798;2024-03-22T10:30:09;100507.16;;;-7.31;100.00
66703;BME280;60933;46.398;-63.798;2024-03-22T10:32:36;100524.97;;;-7.25;100.00
66703;BME280;60933;46.398;-63.798;2024-03-22T10:35:04;100537.81;;;-7.37;100.00
66703;BME280;60933;46.398;-63.798;2024-03-22T10:37:33;100520.31;;;-7.35;100.00
66703;BME280;60933;46.398;-63.798;2024-03-22T10:40:03;100522.00;;;-7.36;100.00
66703;BME280;60933;46.398;-63.798;2024-03-22T10:42:41;100522.78;;;-7.37;100.00
66703;BME280;60933;46.398;-63.798;2024-03-22T10:45:09;100557.03;;;-7.37;100.00
66703;BME280;60933;46.398;-63.798;2024-03-22T10:47:37;100537.09;;;-7.34;100.00
66703;BME280;60933;46.398;-63.798;2024-03-22T10:50:06;100557.31;;;-7.31;100.00
66703;BME280;60933;46.398;-63.798;2024-03-22T10:55:08;100551.00;;;-7.23;100.00
66703;BME280;60933;46.398;-63.798;2024-03-22T10:57:37;100551.25;;;-7.17;100.00
66703;BME280;60933;46.398;-63.798;2024-03-22T11:00:09;100588.88;;;-7.17;100.00
66703;BME280;60933;46.398;-63.798;2024-03-22T11:02:38;100556.47;;;-7.12;100.00
66703;BME280;60933;46.398;-63.798;2024-03-22T11:05:05;100601.06;;;-7.06;100.00
66703;BME280;60933;46.398;-63.798;2024-03-22T11:07:33;100575.03;;;-7.08;100.00
66703;BME280;60933;46.398;-63.798;2024-03-22T11:10:03;100586.91;;;-7.04;100.00
66703;BME280;60933;46.398;-63.798;2024-03-22T11:12:37;100577.47;;;-7.10;100.00
66703;BME280;60933;46.398;-63.798;2024-03-22T11:15:05;100601.78;;;-7.09;100.00
66703;BME280;60933;46.398;-63.798;2024-03-22T11:17:31;100582.34;;;-7.13;100.00
66703;BME280;60933;46.398;-63.798;2024-03-22T11:19:58;100563.00;;;-7.16;100.00
66703;BME280;60933;46.398;-63.798;2024-03-22T11:22:28;100583.50;;;-7.06;100.00
66703;BME280;60933;46.398;-63.798;2024-03-22T11:24:54;100581.88;;;-7.04;100.00
66703;BME280;60933;46.398;-63.798;2024-03-22T11:27:21;100565.41;;;-6.99;100.00
66703;BME280;60933;46.398;-63.798;2024-03-22T11:29:47;100614.97;;;-6.93;100.00
66703;BME280;60933;46.398;-63.798;2024-03-22T11:32:17;100596.19;;;-6.84;100.00
66703;BME280;60933;46.398;-63.798;2024-03-22T11:34:43;100669.44;;;-6.73;100.00
66703;BME280;60933;46.398;-63.798;2024-03-22T11:37:10;100600.41;;;-6.63;100.00
66703;BME280;60933;46.398;-63.798;2024-03-22T11:39:37;100624.44;;;-6.48;100.00
66703;BME280;60933;46.398;-63.798;2024-03-22T11:42:05;100638.03;;;-6.43;100.00
66703;BME280;60933;46.398;-63.798;2024-03-22T11:44:34;100640.06;;;-6.36;100.00
66703;BME280;60933;46.398;-63.798;2024-03-22T11:47:02;100591.78;;;-6.48;100.00
66703;BME280;60933;46.398;-63.798;2024-03-22T11:49:29;100623.50;;;-6.31;100.00
66703;BME280;60933;46.398;-63.798;2024-03-22T11:51:56;100652.19;;;-6.26;100.00
66703;BME280;60933;46.398;-63.798;2024-03-22T11:54:23;100621.94;;;-6.29;100.00
66703;BME280;60933;46.398;-63.798;2024-03-22T11:56:50;100651.66;;;-6.18;100.00
66703;BME280;60933;46.398;-63.798;2024-03-22T11:59:19;100695.03;;;-6.23;100.00
66703;BME280;60933;46.398;-63.798;2024-03-22T12:01:47;100675.69;;;-6.25;100.00
66703;BME280;60933;46.398;-63.798;2024-03-22T12:04:14;100651.75;;;-6.17;100.00
66703;BME280;60933;46.398;-63.798;2024-03-22T12:06:42;100677.38;;;-6.05;100.00
66703;BME280;60933;46.398;-63.798;2024-03-22T12:09:09;100659.19;;;-5.97;100.00
66703;BME280;60933;46.398;-63.798;2024-03-22T12:11:38;100679.56;;;-5.91;100.00
66703;BME280;60933;46.398;-63.798;2024-03-22T12:14:05;100648.28;;;-5.98;98.92
66703;BME280;60933;46.398;-63.798;2024-03-22T12:16:35;100682.13;;;-5.90;97.13
66703;BME280;60933;46.398;-63.798;2024-03-22T12:19:02;100676.28;;;-5.89;99.01
66703;BME280;60933;46.398;-63.798;2024-03-22T12:21:29;100696.34;;;-5.90;99.09
66703;BME280;60933;46.398;-63.798;2024-03-22T12:23:56;100679.44;;;-5.94;96.32
66703;BME280;60933;46.398;-63.798;2024-03-22T12:26:22;100676.38;;;-5.87;96.22
66703;BME280;60933;46.398;-63.798;2024-03-22T12:28:49;100706.66;;;-5.84;94.24
66703;BME280;60933;46.398;-63.798;2024-03-22T12:31:17;100695.88;;;-5.81;92.80